createdAt,value
2023-02-02T00:01:51.668Z,7.40
2023-02-02T00:04:25.318Z,7.40
2023-02-02T00:06:54.683Z,7.30
2023-02-02T00:09:23.110Z,7.30
2023-02-02T00:11:52.083Z,7.50
2023-02-02T00:14:20.691Z,7.80
2023-02-02T00:16:50.784Z,8.10
2023-02-02T00:19:22.875Z,8.30
2023-02-02T00:21:51.554Z,8.20
2023-02-02T00:24:20.914Z,8.30
2023-02-02T00:26:52.229Z,8.40
2023-02-02T00:29:24.375Z,8.30
2023-02-02T00:31:53.680Z,8.20
2023-02-02T00:34:24.557Z,8.10
2023-02-02T00:36:53.467Z,8.10
2023-02-02T00:39:26.734Z,8.10
2023-02-02T00:41:56.259Z,8.20
2023-02-02T00:44:45.278Z,8.20
2023-02-02T00:47:14.075Z,8.00
2023-02-02T00:49:44.080Z,7.90
2023-02-02T00:52:13.305Z,8.10
2023-02-02T00:54:44.116Z,8.10
2023-02-02T00:57:14.618Z,8.20
2023-02-02T00:59:42.838Z,8.10
2023-02-02T01:02:11.435Z,8.20
2023-02-02T01:04:40.941Z,8.10
2023-02-02T01:07:10.895Z,8.10
2023-02-02T01:09:39.021Z,8.10
2023-02-02T01:12:07.870Z,8.00
2023-02-02T01:14:35.884Z,8.00
2023-02-02T01:17:06.107Z,7.80
2023-02-02T01:19:34.340Z,7.70
2023-02-02T01:22:03.607Z,7.60
2023-02-02T01:24:55.389Z,7.50
2023-02-02T01:27:24.542Z,7.50
2023-02-02T01:29:52.545Z,7.70
2023-02-02T01:32:22.210Z,7.80
2023-02-02T01:34:52.833Z,8.00
2023-02-02T01:37:24.711Z,7.80
2023-02-02T01:39:59.121Z,7.80
2023-02-02T01:42:27.197Z,7.80
2023-02-02T01:45:07.502Z,8.00
2023-02-02T01:47:41.544Z,7.80
2023-02-02T01:50:14.124Z,8.00
2023-02-02T01:52:44.384Z,8.00
2023-02-02T01:55:16.611Z,8.10
2023-02-02T01:57:49.733Z,8.20
2023-02-02T02:00:25.245Z,8.20
2023-02-02T02:02:56.403Z,8.00
2023-02-02T02:05:31.660Z,7.90
2023-02-02T02:08:09.120Z,7.90
2023-02-02T02:10:39.499Z,7.90
2023-02-02T02:13:07.997Z,8.00
2023-02-02T02:16:03.376Z,8.00
2023-02-02T02:18:41.786Z,8.10
2023-02-02T02:21:54.115Z,8.10
2023-02-02T02:25:19.911Z,8.10
2023-02-02T02:28:20.176Z,8.00
2023-02-02T02:31:33.651Z,8.00
2023-02-02T02:34:16.307Z,8.00
2023-02-02T02:36:51.028Z,7.90
2023-02-02T02:39:28.276Z,8.00
2023-02-02T02:42:01.197Z,8.10
2023-02-02T02:44:33.023Z,8.30
2023-02-02T02:47:01.632Z,8.40
2023-02-02T02:49:32.106Z,8.30
2023-02-02T02:52:00.130Z,8.40
2023-02-02T02:54:36.475Z,8.30
2023-02-02T02:57:39.712Z,8.30
2023-02-02T03:00:23.235Z,8.30
2023-02-02T03:02:58.276Z,8.30
2023-02-02T03:05:35.156Z,8.10
2023-02-02T03:08:10.636Z,8.10
2023-02-02T03:10:43.146Z,8.10
2023-02-02T03:13:14.015Z,8.20
2023-02-02T03:15:43.679Z,8.20
2023-02-02T03:18:12.830Z,8.20
2023-02-02T03:20:46.279Z,8.00
2023-02-02T03:23:15.078Z,8.10
2023-02-02T03:25:50.861Z,8.00
2023-02-02T03:28:21.387Z,8.10
2023-02-02T03:30:50.709Z,8.10
2023-02-02T03:33:21.151Z,8.10
2023-02-02T03:35:54.067Z,8.10
2023-02-02T03:38:24.416Z,8.10
2023-02-02T03:40:53.487Z,7.90
2023-02-02T03:43:22.227Z,7.90
2023-02-02T03:45:57.727Z,8.00
2023-02-02T03:48:26.000Z,7.90
2023-02-02T03:50:55.366Z,8.00
2023-02-02T03:53:24.876Z,7.90
2023-02-02T03:55:53.015Z,7.90
2023-02-02T03:58:22.803Z,7.60
2023-02-02T04:00:51.267Z,7.70
2023-02-02T04:03:19.654Z,8.00
2023-02-02T04:05:52.168Z,8.00
2023-02-02T04:08:21.522Z,7.90
2023-02-02T04:10:49.901Z,8.10
2023-02-02T04:13:18.508Z,8.00
2023-02-02T04:15:46.623Z,7.90
2023-02-02T04:18:14.569Z,7.90
2023-02-02T04:20:43.507Z,7.80
2023-02-02T04:23:11.482Z,8.00
2023-02-02T04:25:49.879Z,8.00
2023-02-02T04:28:18.813Z,8.00
2023-02-02T04:30:48.954Z,8.10
2023-02-02T04:33:17.181Z,8.10
2023-02-02T04:35:45.573Z,8.10
2023-02-02T04:38:13.964Z,8.10
2023-02-02T04:40:46.255Z,8.30
2023-02-02T04:43:14.597Z,8.20
2023-02-02T04:45:43.277Z,8.20
2023-02-02T04:48:11.716Z,8.20
2023-02-02T04:50:40.109Z,8.20
2023-02-02T04:53:09.278Z,8.40
2023-02-02T04:55:38.820Z,8.40
2023-02-02T04:58:09.788Z,8.30
2023-02-02T05:00:37.755Z,8.40
2023-02-02T05:03:06.346Z,8.30
2023-02-02T05:05:34.371Z,8.40
2023-02-02T05:08:02.381Z,8.50
2023-02-02T05:10:31.298Z,8.30
2023-02-02T05:12:59.939Z,8.00
2023-02-02T05:15:29.757Z,8.00
2023-02-02T05:17:57.808Z,8.10
2023-02-02T05:20:26.251Z,8.10
2023-02-02T05:22:54.229Z,8.10
2023-02-02T05:25:25.511Z,8.10
2023-02-02T05:27:53.744Z,8.10
2023-02-02T05:30:22.532Z,8.10
2023-02-02T05:32:53.010Z,8.20
2023-02-02T05:35:21.202Z,8.30
2023-02-02T05:37:49.226Z,8.30
2023-02-02T05:40:18.668Z,8.10
2023-02-02T05:42:49.394Z,8.10
2023-02-02T05:45:17.709Z,8.30
2023-02-02T05:47:46.581Z,8.30
2023-02-02T05:50:19.896Z,8.30
2023-02-02T05:52:50.108Z,8.40
2023-02-02T05:55:19.997Z,8.40
2023-02-02T05:57:48.560Z,8.50
2023-02-02T06:00:17.593Z,8.40
2023-02-02T06:02:45.697Z,8.20
2023-02-02T06:05:15.171Z,8.20
2023-02-02T06:07:43.584Z,8.20
2023-02-02T06:10:11.968Z,8.10
2023-02-02T06:12:40.007Z,8.20
2023-02-02T06:15:09.994Z,8.10
2023-02-02T06:17:38.435Z,8.20
2023-02-02T06:20:08.359Z,8.40
2023-02-02T06:22:39.362Z,8.30
2023-02-02T06:25:08.645Z,8.20
2023-02-02T06:27:36.826Z,8.30
2023-02-02T06:30:06.024Z,8.20
2023-02-02T06:32:34.243Z,8.30
2023-02-02T06:35:02.279Z,8.20
2023-02-02T06:37:30.801Z,8.20
2023-02-02T06:40:03.253Z,8.10
2023-02-02T06:42:31.389Z,8.30
2023-02-02T06:44:59.347Z,8.20
2023-02-02T06:47:29.283Z,8.30
2023-02-02T06:49:57.447Z,8.30
2023-02-02T06:52:25.508Z,8.30
2023-02-02T06:54:53.518Z,8.30
2023-02-02T06:57:23.542Z,8.20
2023-02-02T06:59:52.260Z,8.10
2023-02-02T07:02:23.723Z,8.20
2023-02-02T07:04:52.900Z,8.30
2023-02-02T07:07:21.289Z,8.30
2023-02-02T07:09:57.953Z,8.30
2023-02-02T07:12:28.829Z,8.50
2023-02-02T07:14:57.574Z,8.40
2023-02-02T07:17:25.696Z,8.20
2023-02-02T07:19:54.123Z,8.40
2023-02-02T07:22:22.205Z,8.50
2023-02-02T07:24:51.061Z,8.50
2023-02-02T07:27:19.115Z,8.50
2023-02-02T07:29:48.433Z,8.50
2023-02-02T07:32:17.433Z,8.50
2023-02-02T07:34:45.405Z,8.50
2023-02-02T07:37:13.828Z,8.50
2023-02-02T07:39:44.286Z,8.60
2023-02-02T07:42:12.748Z,8.60
2023-02-02T07:44:42.216Z,8.60
2023-02-02T07:47:13.333Z,8.60
2023-02-02T07:49:41.329Z,8.60
2023-02-02T07:52:09.353Z,8.70
2023-02-02T07:54:37.991Z,8.60
2023-02-02T07:57:06.025Z,8.60
2023-02-02T07:59:35.224Z,8.50
2023-02-02T08:02:03.903Z,8.50
2023-02-02T08:04:34.293Z,8.60
2023-02-02T08:07:02.788Z,8.50
2023-02-02T08:09:33.814Z,8.40
2023-02-02T08:12:02.510Z,8.30
2023-02-02T08:14:31.216Z,8.40
2023-02-02T08:17:00.689Z,8.50
2023-02-02T08:19:28.742Z,8.40
2023-02-02T08:21:58.068Z,8.40
2023-02-02T08:24:26.590Z,8.50
2023-02-02T08:26:54.683Z,8.60
2023-02-02T08:29:22.733Z,8.40
2023-02-02T08:31:51.457Z,8.50
2023-02-02T08:34:19.501Z,8.90
2023-02-02T08:36:48.242Z,8.90
2023-02-02T08:39:17.615Z,8.90
2023-02-02T08:41:46.440Z,8.90
2023-02-02T08:44:16.521Z,8.80
2023-02-02T08:46:45.413Z,8.70
2023-02-02T08:49:16.933Z,8.60
2023-02-02T08:51:45.839Z,8.70
2023-02-02T08:54:14.140Z,8.60
2023-02-02T08:56:43.928Z,8.60
2023-02-02T08:59:12.808Z,8.50
2023-02-02T09:01:40.765Z,8.50
2023-02-02T09:04:15.307Z,8.50
2023-02-02T09:06:44.591Z,8.50
2023-02-02T09:09:16.415Z,8.50
2023-02-02T09:11:45.997Z,8.60
2023-02-02T09:14:15.582Z,8.80
2023-02-02T09:16:44.317Z,9.00
2023-02-02T09:19:13.611Z,8.90
2023-02-02T09:21:42.123Z,8.80
2023-02-02T09:24:12.905Z,8.60
2023-02-02T09:26:43.807Z,8.40
2023-02-02T09:29:15.878Z,8.50
2023-02-02T09:31:45.394Z,8.50
2023-02-02T09:34:16.060Z,8.40
2023-02-02T09:36:44.995Z,8.40
2023-02-02T09:39:15.354Z,8.40
2023-02-02T09:42:18.603Z,8.40
2023-02-02T09:44:59.512Z,8.30
2023-02-02T09:47:53.335Z,8.40
2023-02-02T09:50:32.371Z,8.30
2023-02-02T09:53:08.042Z,8.30
2023-02-02T09:55:39.263Z,8.40
2023-02-02T09:58:15.984Z,8.50
2023-02-02T10:00:49.705Z,8.50
2023-02-02T10:03:23.285Z,8.40
2023-02-02T10:05:58.346Z,8.60
2023-02-02T10:08:35.733Z,8.60
2023-02-02T10:11:13.398Z,8.60
2023-02-02T10:13:44.453Z,8.60
2023-02-02T10:16:18.481Z,8.50
2023-02-02T10:18:52.857Z,8.60
2023-02-02T10:21:28.554Z,8.60
2023-02-02T10:23:58.428Z,8.50
2023-02-02T10:26:47.033Z,8.50
2023-02-02T10:29:40.130Z,8.50
2023-02-02T10:32:25.414Z,8.60
2023-02-02T10:35:13.803Z,8.50
2023-02-02T10:37:52.373Z,8.60
2023-02-02T10:40:36.508Z,8.60
2023-02-02T10:43:35.700Z,8.40
2023-02-02T10:46:06.813Z,8.40
2023-02-02T10:48:37.481Z,8.50
2023-02-02T10:51:13.393Z,8.40
2023-02-02T10:53:44.713Z,8.40
2023-02-02T10:56:14.085Z,8.60
2023-02-02T10:58:50.379Z,8.60
2023-02-02T11:01:23.493Z,8.70
2023-02-02T11:04:13.575Z,8.70
2023-02-02T11:06:49.932Z,8.70
2023-02-02T11:09:22.456Z,8.70
2023-02-02T11:11:55.422Z,8.70
2023-02-02T11:14:44.576Z,8.60
2023-02-02T11:17:20.540Z,8.70
2023-02-02T11:19:52.438Z,8.70
2023-02-02T11:22:30.717Z,8.70
2023-02-02T11:25:04.418Z,8.80
2023-02-02T11:27:37.325Z,8.80
2023-02-02T11:30:29.220Z,8.70
2023-02-02T11:32:57.637Z,8.70
2023-02-02T11:35:30.939Z,8.60
2023-02-02T11:38:09.185Z,8.80
2023-02-02T11:40:39.852Z,9.00
2023-02-02T11:43:19.561Z,8.80
2023-02-02T11:45:55.182Z,8.80
2023-02-02T11:48:27.880Z,8.90
2023-02-02T11:50:59.105Z,8.80
2023-02-02T11:53:29.963Z,8.80
2023-02-02T11:56:03.467Z,8.90
2023-02-02T11:58:46.277Z,8.80
2023-02-02T12:01:27.021Z,8.80
2023-02-02T12:03:56.969Z,8.90
2023-02-02T12:06:28.218Z,8.90
2023-02-02T12:09:02.084Z,9.00
2023-02-02T12:11:45.390Z,9.00
2023-02-02T12:14:29.227Z,8.90
2023-02-02T12:17:08.694Z,8.70
2023-02-02T12:19:58.683Z,8.70
2023-02-02T12:23:04.728Z,8.80
2023-02-02T12:25:53.367Z,8.80
2023-02-02T12:28:39.750Z,8.90
2023-02-02T12:31:16.535Z,8.80
2023-02-02T12:33:54.399Z,8.80
2023-02-02T12:36:39.572Z,8.80
2023-02-02T12:39:24.415Z,8.90
2023-02-02T12:42:19.414Z,9.00
2023-02-02T12:45:16.505Z,9.00
2023-02-02T12:47:56.623Z,9.10
2023-02-02T12:50:32.986Z,9.10
2023-02-02T12:53:21.081Z,9.10
2023-02-02T13:05:14.896Z,9.10
2023-02-02T13:07:46.472Z,9.10
2023-02-02T13:10:21.434Z,9.20
2023-02-02T13:12:55.110Z,9.20
2023-02-02T13:15:26.257Z,9.30
2023-02-02T13:17:56.493Z,9.10
2023-02-02T13:20:35.791Z,9.20
2023-02-02T13:23:09.469Z,9.30
2023-02-02T13:25:45.339Z,9.30
2023-02-02T13:28:26.666Z,9.30
2023-02-02T13:31:02.189Z,9.20
2023-02-02T13:33:34.740Z,9.20
2023-02-02T13:36:10.655Z,9.30
2023-02-02T13:38:42.627Z,9.30
2023-02-02T13:41:13.592Z,9.30
2023-02-02T13:43:52.421Z,9.40
2023-02-02T13:46:41.693Z,9.30
2023-02-02T13:49:16.503Z,9.30
2023-02-02T13:51:54.151Z,9.30
2023-02-02T13:54:55.873Z,9.30
2023-02-02T13:58:08.058Z,9.20
2023-02-02T14:00:40.311Z,9.40
2023-02-02T14:03:33.644Z,9.30
2023-02-02T14:06:12.081Z,9.20
2023-02-02T14:08:48.432Z,9.10
2023-02-02T14:11:22.937Z,9.10
2023-02-02T14:14:10.921Z,9.10
2023-02-02T14:16:56.177Z,9.20
2023-02-02T14:19:50.669Z,9.10
2023-02-02T14:22:38.316Z,9.30
2023-02-02T14:28:52.182Z,9.20
2023-02-02T14:31:42.545Z,9.10
2023-02-02T14:34:33.865Z,9.10
2023-02-02T14:37:45.172Z,9.10
2023-02-02T14:40:48.423Z,8.90
2023-02-02T14:43:47.013Z,9.10
2023-02-02T14:46:35.861Z,9.10
2023-02-02T14:49:14.440Z,9.10
2023-02-02T14:51:52.400Z,9.20
2023-02-02T14:54:26.668Z,9.10
2023-02-02T14:56:58.854Z,9.10
2023-02-02T14:59:35.970Z,8.90
2023-02-02T15:02:19.806Z,8.90
2023-02-02T15:04:48.934Z,9.00
2023-02-02T15:07:54.071Z,9.00
2023-02-02T15:11:01.197Z,9.10
2023-02-02T15:13:37.940Z,9.20
2023-02-02T15:16:15.826Z,9.10
2023-02-02T15:18:47.691Z,9.10
2023-02-02T15:21:21.803Z,9.00
2023-02-02T15:23:50.723Z,9.10
2023-02-02T15:26:25.232Z,9.20
2023-02-02T15:28:58.142Z,9.20
2023-02-02T15:31:35.075Z,9.20
2023-02-02T15:34:12.069Z,9.20
2023-02-02T15:36:47.182Z,9.30
2023-02-02T15:39:26.399Z,9.10
2023-02-02T15:42:10.736Z,9.10
2023-02-02T15:44:39.293Z,9.10
2023-02-02T15:47:16.222Z,9.10
2023-02-02T15:49:46.431Z,9.20
2023-02-02T15:52:18.025Z,9.20
2023-02-02T15:54:53.606Z,8.90
2023-02-02T15:57:30.554Z,9.10
2023-02-02T15:59:59.404Z,9.20
2023-02-02T16:02:41.197Z,9.30
2023-02-02T16:05:40.910Z,9.40
2023-02-02T16:08:18.004Z,9.40
2023-02-02T16:10:48.931Z,9.30
2023-02-02T16:13:26.599Z,9.30
2023-02-02T16:16:00.903Z,9.10
2023-02-02T16:18:31.185Z,9.10
2023-02-02T16:21:02.926Z,9.30
2023-02-02T16:23:35.754Z,9.40
2023-02-02T16:26:07.096Z,9.60
2023-02-02T16:28:36.309Z,9.60
2023-02-02T16:31:07.384Z,9.30
2023-02-02T16:33:39.428Z,9.30
2023-02-02T16:36:26.193Z,9.20
2023-02-02T16:38:56.383Z,9.50
2023-02-02T16:41:29.939Z,9.30
2023-02-02T16:44:39.366Z,9.30
2023-02-02T16:47:09.592Z,9.40
2023-02-02T16:49:39.209Z,9.10
2023-02-02T16:52:18.523Z,9.20
2023-02-02T16:54:53.098Z,9.10
2023-02-02T16:57:24.754Z,9.20
2023-02-02T16:59:55.707Z,9.20
2023-02-02T17:02:29.077Z,9.10
2023-02-02T17:05:02.143Z,9.10
2023-02-02T17:07:35.423Z,9.10
2023-02-02T17:10:23.045Z,9.20
2023-02-02T17:12:51.023Z,9.20
2023-02-02T17:15:34.648Z,9.40
2023-02-02T17:18:03.965Z,9.40
2023-02-02T17:20:37.079Z,9.30
2023-02-02T17:23:10.133Z,9.20
2023-02-02T17:25:42.729Z,9.00
2023-02-02T17:28:12.952Z,8.90
2023-02-02T17:30:41.781Z,8.90
2023-02-02T17:33:15.121Z,8.80
2023-02-02T17:35:54.325Z,8.80
2023-02-02T17:38:28.094Z,9.00
2023-02-02T17:41:01.196Z,9.00
2023-02-02T17:43:30.507Z,9.00
2023-02-02T17:45:58.729Z,8.90
2023-02-02T17:48:28.235Z,8.90
2023-02-02T17:50:56.231Z,9.00
2023-02-02T17:53:25.574Z,9.00
2023-02-02T17:55:53.616Z,9.10
2023-02-02T17:58:22.064Z,9.00
2023-02-02T18:00:54.577Z,9.00
2023-02-02T18:03:26.008Z,9.00
2023-02-02T18:05:56.262Z,9.20
2023-02-02T18:08:26.295Z,9.10
2023-02-02T18:10:55.050Z,9.00
2023-02-02T18:13:25.062Z,9.00
2023-02-02T18:15:55.854Z,9.10
2023-02-02T18:18:25.121Z,9.00
2023-02-02T18:20:53.135Z,9.00
2023-02-02T18:23:24.427Z,9.00
2023-02-02T18:25:54.002Z,9.10
2023-02-02T18:28:23.260Z,9.00
2023-02-02T18:30:52.278Z,9.10
2023-02-02T18:33:20.482Z,9.10
2023-02-02T18:35:49.682Z,9.00
2023-02-02T18:38:18.039Z,9.10
2023-02-02T18:40:55.298Z,9.00
2023-02-02T18:43:24.697Z,9.00
2023-02-02T18:45:59.658Z,9.00
2023-02-02T18:48:28.321Z,9.10
2023-02-02T18:50:56.312Z,9.10
2023-02-02T18:53:26.093Z,9.30
2023-02-02T18:55:54.093Z,9.10
2023-02-02T18:58:26.062Z,9.00
2023-02-02T19:00:54.500Z,9.20
2023-02-02T19:03:22.722Z,9.20
2023-02-02T19:06:09.319Z,9.30
2023-02-02T19:08:39.727Z,9.20
2023-02-02T19:11:15.895Z,9.20
2023-02-02T19:13:46.272Z,9.20
2023-02-02T19:16:21.217Z,9.00
2023-02-02T19:18:51.771Z,9.10
2023-02-02T19:21:20.290Z,9.20
2023-02-02T19:23:48.252Z,9.10
2023-02-02T19:26:22.516Z,9.30
2023-02-02T19:28:52.350Z,9.30
2023-02-02T19:31:21.192Z,9.00
2023-02-02T19:33:52.640Z,8.90
2023-02-02T19:36:22.171Z,9.00
2023-02-02T19:38:52.833Z,9.10
2023-02-02T19:41:26.344Z,9.30
2023-02-02T19:44:00.370Z,9.30
2023-02-02T19:46:31.464Z,9.40
2023-02-02T19:49:08.397Z,9.40
2023-02-02T19:51:45.027Z,9.00
2023-02-02T19:54:30.817Z,9.10
2023-02-02T19:57:04.298Z,9.00
2023-02-02T19:59:36.371Z,9.30
2023-02-02T20:02:27.704Z,9.10
2023-02-02T20:05:02.887Z,9.20
2023-02-02T20:07:31.776Z,9.20
2023-02-02T20:10:14.934Z,9.30
2023-02-02T20:12:43.201Z,9.30
2023-02-02T20:15:25.882Z,9.40
2023-02-02T20:17:56.418Z,9.30
2023-02-02T20:20:28.074Z,9.30
2023-02-02T20:22:57.332Z,9.30
2023-02-02T20:25:26.584Z,9.20
2023-02-02T20:27:54.617Z,9.20
2023-02-02T20:30:29.416Z,9.30
2023-02-02T20:32:59.049Z,9.30
2023-02-02T20:35:36.849Z,9.50
2023-02-02T20:38:17.667Z,9.50
2023-02-02T20:40:46.146Z,9.50
2023-02-02T20:43:15.845Z,9.40
2023-02-02T20:45:48.768Z,9.50
2023-02-02T20:48:16.880Z,9.60
2023-02-02T20:50:46.808Z,9.70
2023-02-02T20:53:16.409Z,9.60
2023-02-02T20:55:46.177Z,9.60
2023-02-02T20:58:14.334Z,9.40
2023-02-02T21:00:42.891Z,9.40
2023-02-02T21:03:13.197Z,9.50
2023-02-02T21:05:41.518Z,9.40
2023-02-02T21:08:10.092Z,9.20
2023-02-02T21:10:38.768Z,9.40
2023-02-02T21:13:07.343Z,9.40
2023-02-02T21:15:37.272Z,9.40
2023-02-02T21:18:05.428Z,9.40
2023-02-02T21:20:34.803Z,9.50
2023-02-02T21:23:03.938Z,9.50
2023-02-02T21:25:32.054Z,9.60
2023-02-02T21:28:00.770Z,9.50
2023-02-02T21:30:29.283Z,9.40
2023-02-02T21:32:58.332Z,9.50
2023-02-02T21:35:26.633Z,9.40
2023-02-02T21:37:58.919Z,9.30
2023-02-02T21:40:30.323Z,9.30
2023-02-02T21:43:00.407Z,9.30
2023-02-02T21:45:37.615Z,9.40
2023-02-02T21:48:08.223Z,9.60
2023-02-02T21:50:41.423Z,9.50
2023-02-02T21:53:21.008Z,9.50
2023-02-02T21:55:54.814Z,9.30
2023-02-02T21:58:26.006Z,9.30
2023-02-02T22:00:58.004Z,9.40
2023-02-02T22:03:30.050Z,9.50
2023-02-02T22:06:10.865Z,9.50
2023-02-02T22:08:41.414Z,9.40
2023-02-02T22:11:22.765Z,9.40
2023-02-02T22:13:53.532Z,9.40
2023-02-02T22:16:22.580Z,9.50
2023-02-02T22:18:50.664Z,9.60
2023-02-02T22:21:21.034Z,9.50
2023-02-02T22:23:51.742Z,9.40
2023-02-02T22:26:36.460Z,9.40
2023-02-02T22:29:13.871Z,9.40
2023-02-02T22:31:42.164Z,9.60
2023-02-02T22:34:12.078Z,9.70
2023-02-02T22:36:41.631Z,9.50
2023-02-02T22:39:10.956Z,9.40
2023-02-02T22:41:39.516Z,9.40
2023-02-02T22:44:07.936Z,9.40
2023-02-02T22:46:37.259Z,9.40
2023-02-02T22:49:05.333Z,9.40
2023-02-02T22:51:33.759Z,9.40
2023-02-02T22:54:01.780Z,9.20
2023-02-02T22:56:31.892Z,9.20
2023-02-02T22:59:01.982Z,9.10
2023-02-02T23:01:30.028Z,9.30
2023-02-02T23:03:58.619Z,9.20
2023-02-02T23:06:27.035Z,9.30
2023-02-02T23:08:55.080Z,9.40
2023-02-02T23:11:23.061Z,9.40
2023-02-02T23:13:53.394Z,9.40
2023-02-02T23:16:21.618Z,9.40
2023-02-02T23:18:49.648Z,9.40
2023-02-02T23:21:18.304Z,9.50
2023-02-02T23:23:46.755Z,9.40
2023-02-02T23:26:14.771Z,9.60
2023-02-02T23:28:43.152Z,9.40
2023-02-02T23:31:12.540Z,9.40
2023-02-02T23:33:40.992Z,9.40
2023-02-02T23:36:09.591Z,9.50
2023-02-02T23:38:38.080Z,9.40
2023-02-02T23:41:07.471Z,9.40
2023-02-02T23:43:35.546Z,9.30
2023-02-02T23:46:04.401Z,9.30
2023-02-02T23:48:33.749Z,9.40
2023-02-02T23:51:03.064Z,9.50
2023-02-02T23:53:31.125Z,9.70
2023-02-02T23:55:59.128Z,9.80
2023-02-02T23:58:28.052Z,9.80
